Portada
METAR-TAF:

METAR-TAF

Aeroports :

Monroe, Carolina del Nord, Estats Units d'Amèrica

latitud: 35-01-01N, longitud: 080-37-14W, altitud: 207 m

Observació

L'informe es va fer fa 1 hora i 1 minuts, a les 01:53 UTC
Vent calma
Temperatura 23°C
Humitat 83%
Pressió 1014 hPa
Visibilitat: 16.1 km
Cel ennuvolat a una alçada de 11000 ft

METAR: KEQY 210153Z AUTO 00000KT 10SM BKN110 23/20 A2993 RMK AO2 SLP136 T02280200

Hora: 22:54 (02:54 UTC)


TAF: manca

Observacions i pronòstics meteorològics de més de 4000 aeroports (METAR i TAF).

Les estacions disponibles són els punts grocs i vermells al mapa.

Posi el ratolí al punt desitjat per veure el nom de l'estació.

Feu clic per veure les observacions i els pronòstics meteorològics.

Per canviar el mapa: feu clic els botons verds amb una creu de color negre per apropar; al botó verd amb un guió per allunyar la imatge; o en les fletxes verdes per a mapes adjacents.


METAR-TAF: